Time;durP1;ratioP1;P1;durP2;ratioP2;P2;SDS_P1;SDS_P2;PMS_P1;PMS_P2;Temp;Humidity;BMP_temperature;BMP_pressure;BME280_temperature;BME280_humidity;BME280_pressure;Samples;Min_cycle;Max_cycle;Signal;HPM_P1;HPM_P2
2021/04/29 00:01:15;;;;;;;15.05;8.13;;;14.40;50.90;;;;;;4945607;29;20032;-67
2021/04/29 00:03:41;;;;;;;11.75;8.00;;;14.40;51.20;;;;;;4945125;29;20036;-67
2021/04/29 00:06:07;;;;;;;11.60;8.00;;;14.40;51.70;;;;;;4914194;29;20032;-67
2021/04/29 00:08:33;;;;;;;14.27;8.55;;;14.40;52.60;;;;;;4945647;29;20326;-67
2021/04/29 00:10:58;;;;;;;14.85;8.43;;;14.40;52.70;;;;;;4928698;29;20090;-68
2021/04/29 00:13:24;;;;;;;12.63;7.47;;;14.40;53.20;;;;;;4928367;29;20095;-68
2021/04/29 00:15:50;;;;;;;11.93;8.23;;;14.40;53.30;;;;;;4944991;29;20078;-67
2021/04/29 00:18:16;;;;;;;12.50;7.57;;;14.50;54.00;;;;;;4928493;29;20191;-68
2021/04/29 00:20:41;;;;;;;10.77;7.38;;;14.40;54.60;;;;;;4946892;29;20044;-67
2021/04/29 00:23:07;;;;;;;14.15;7.68;;;14.40;54.90;;;;;;4945382;29;20203;-68
2021/04/29 00:25:33;;;;;;;11.63;7.22;;;14.40;55.20;;;;;;4945071;29;20087;-67
2021/04/29 00:27:58;;;;;;;12.50;7.03;;;14.50;55.30;;;;;;4947209;29;20047;-67
2021/04/29 00:30:24;;;;;;;11.50;6.65;;;14.50;55.50;;;;;;4950549;29;20040;-67
2021/04/29 00:32:49;;;;;;;8.25;6.45;;;14.50;56.20;;;;;;4952950;29;20280;-67
2021/04/29 00:35:15;;;;;;;10.65;6.35;;;14.50;56.40;;;;;;4951600;29;20342;-66
2021/04/29 00:37:41;;;;;;;12.75;6.50;;;14.40;56.90;;;;;;4951519;29;20226;-67
2021/04/29 00:40:07;;;;;;;9.80;5.93;;;14.40;57.10;;;;;;4951280;29;20196;-67
2021/04/29 00:42:39;;;;;;;7.68;5.43;;;14.50;56.90;;;;;;4934097;29;20027;-67
2021/04/29 00:45:06;;;;;;;9.13;5.63;;;14.50;57.30;;;;;;4936130;29;20199;-67
2021/04/29 00:47:32;;;;;;;8.55;5.43;;;14.50;57.20;;;;;;4934915;29;20035;-67
2021/04/29 00:49:58;;;;;;;7.15;5.47;;;14.60;57.50;;;;;;4934206;29;20083;-67
2021/04/29 00:52:24;;;;;;;7.30;4.85;;;14.60;57.70;;;;;;4934318;29;20042;-68
2021/04/29 00:54:50;;;;;;;7.22;4.50;;;14.50;58.00;;;;;;4951182;29;20032;-67
2021/04/29 00:57:16;;;;;;;10.20;5.03;;;14.60;57.60;;;;;;4951412;29;20362;-67
2021/04/29 00:59:42;;;;;;;6.28;4.45;;;14.60;57.80;;;;;;4952670;29;20063;-67
2021/04/29 01:02:07;;;;;;;8.02;4.68;;;14.60;57.80;;;;;;4950910;29;20035;-67
2021/04/29 01:04:56;;;;;;;7.03;4.65;;;14.70;58.10;;;;;;4950967;29;20338;-67
2021/04/29 01:07:24;;;;;;;7.80;4.80;;;14.70;57.70;;;;;;4936832;29;20061;-67
2021/04/29 01:10:32;;;;;;;6.93;4.35;;;14.70;57.80;;;;;;4934561;29;20104;-67
2021/04/29 01:13:02;;;;;;;6.53;4.43;;;14.70;58.30;;;;;;4914204;29;20032;-67
2021/04/29 01:15:27;;;;;;;9.25;4.90;;;14.70;58.00;;;;;;4933914;29;20036;-67
2021/04/29 01:17:53;;;;;;;7.63;4.40;;;14.80;58.00;;;;;;4952816;29;20047;-67
2021/04/29 01:20:22;;;;;;;7.45;4.38;;;14.80;58.20;;;;;;4933760;29;20035;-67
2021/04/29 01:23:10;;;;;;;7.82;4.40;;;14.80;58.30;;;;;;4951081;29;20044;-67
2021/04/29 01:25:36;;;;;;;7.55;4.90;;;14.80;57.90;;;;;;4951023;29;20044;-67
2021/04/29 01:28:01;;;;;;;6.35;4.50;;;14.80;58.00;;;;;;4933897;29;20326;-67
2021/04/29 01:30:27;;;;;;;8.70;4.60;;;14.80;58.40;;;;;;4934067;29;20035;-67
2021/04/29 01:32:53;;;;;;;8.18;4.40;;;14.80;58.40;;;;;;4952762;29;20082;-67
2021/04/29 01:35:18;;;;;;;6.05;4.38;;;14.80;58.40;;;;;;4934374;29;20028;-66
2021/04/29 01:37:44;;;;;;;7.70;4.45;;;14.80;58.10;;;;;;4934296;29;20200;-67
2021/04/29 01:40:11;;;;;;;7.68;4.38;;;14.80;58.30;;;;;;4931270;29;20044;-67
2021/04/29 01:42:36;;;;;;;6.70;4.18;;;14.80;58.20;;;;;;4931020;29;20039;-67
2021/04/29 01:45:03;;;;;;;7.60;4.80;;;14.80;58.20;;;;;;4932623;29;20036;-67
2021/04/29 01:47:32;;;;;;;6.75;4.47;;;14.80;58.40;;;;;;4948095;29;20044;-67
2021/04/29 01:49:57;;;;;;;6.35;4.38;;;14.90;58.40;;;;;;4930851;29;20035;-67
2021/04/29 01:52:23;;;;;;;8.02;4.50;;;14.90;58.60;;;;;;4947831;29;20054;-67
2021/04/29 01:54:49;;;;;;;6.60;4.57;;;14.80;58.40;;;;;;4930444;29;20035;-67
2021/04/29 01:57:17;;;;;;;9.02;4.70;;;14.80;58.70;;;;;;4932762;29;20043;-67
2021/04/29 01:59:43;;;;;;;6.05;3.95;;;14.80;59.00;;;;;;4948415;29;20071;-67
2021/04/29 02:02:08;;;;;;;6.95;4.55;;;14.80;58.80;;;;;;4947777;29;20059;-67
2021/04/29 02:04:34;;;;;;;7.05;4.70;;;14.90;59.60;;;;;;4947268;29;20036;-67
2021/04/29 02:07:00;;;;;;;6.15;4.60;;;14.90;59.40;;;;;;4947311;29;20032;-67
2021/04/29 02:09:25;;;;;;;6.13;4.22;;;14.80;59.40;;;;;;4947633;29;20051;-67
2021/04/29 02:11:58;;;;;;;8.63;4.40;;;14.90;59.50;;;;;;4949130;29;20038;-67
2021/04/29 02:14:40;;;;;;;8.63;4.40;;;14.80;59.80;;;;;;4930308;29;20043;-67
2021/04/29 02:17:12;;;;;;;7.82;4.43;;;14.80;60.20;;;;;;4931083;29;20035;-67
2021/04/29 02:19:39;;;;;;;5.57;4.50;;;14.80;60.90;;;;;;4930323;29;20043;-67
2021/04/29 02:22:05;;;;;;;7.10;4.40;;;14.80;60.80;;;;;;4914149;29;20211;-67
2021/04/29 02:24:32;;;;;;;6.00;4.30;;;14.80;61.30;;;;;;4929850;29;20042;-67
2021/04/29 02:26:58;;;;;;;7.15;4.68;;;14.70;61.80;;;;;;4948587;29;20043;-67
2021/04/29 02:29:23;;;;;;;7.60;4.30;;;14.70;61.40;;;;;;4930481;29;20034;-67
2021/04/29 02:31:49;;;;;;;6.65;4.38;;;14.70;61.40;;;;;;4930071;29;20040;-67
2021/04/29 02:34:14;;;;;;;9.00;5.07;;;14.70;61.20;;;;;;4947024;29;20044;-67
2021/04/29 02:36:40;;;;;;;7.07;4.55;;;14.70;61.30;;;;;;4929718;29;20039;-67
2021/04/29 02:39:06;;;;;;;5.82;4.43;;;14.70;61.20;;;;;;4931445;29;20335;-67
2021/04/29 02:41:31;;;;;;;7.80;4.78;;;14.60;61.40;;;;;;4929945;29;20051;-67
2021/04/29 02:43:59;;;;;;;6.32;4.32;;;14.60;61.20;;;;;;4928120;29;20043;-67
2021/04/29 02:46:25;;;;;;;7.93;4.65;;;14.60;61.40;;;;;;4930104;29;20222;-67
2021/04/29 02:48:51;;;;;;;9.13;4.68;;;14.60;61.30;;;;;;4929734;29;20035;-67
2021/04/29 02:51:16;;;;;;;7.80;4.57;;;14.60;61.10;;;;;;4945608;29;20094;-67
2021/04/29 02:53:42;;;;;;;6.70;4.57;;;14.60;61.20;;;;;;4948023;29;20035;-67
2021/04/29 02:56:07;;;;;;;7.45;4.80;;;14.60;61.20;;;;;;4928921;29;20046;-67
2021/04/29 02:58:47;;;;;;;7.25;4.78;;;14.60;61.30;;;;;;4946117;29;20139;-67
2021/04/29 03:01:13;;;;;;;8.35;5.55;;;14.60;61.30;;;;;;4929577;29;20374;-66
2021/04/29 03:03:39;;;;;;;7.97;5.38;;;14.50;61.50;;;;;;4946097;29;20032;-67
2021/04/29 03:06:05;;;;;;;7.22;5.30;;;14.60;61.30;;;;;;4931138;29;20040;-67
2021/04/29 03:08:31;;;;;;;7.13;5.07;;;14.60;61.00;;;;;;4946509;29;20059;-66
2021/04/29 03:10:56;;;;;;;9.07;5.53;;;14.50;60.80;;;;;;4946493;29;20036;-66
2021/04/29 03:13:22;;;;;;;10.63;5.45;;;14.50;60.80;;;;;;4946300;29;20341;-67
2021/04/29 03:15:47;;;;;;;9.23;5.72;;;14.50;60.50;;;;;;4946060;29;20040;-66
2021/04/29 03:18:13;;;;;;;11.93;5.88;;;14.40;60.70;;;;;;4947587;29;20032;-66
2021/04/29 03:20:39;;;;;;;11.55;5.30;;;14.40;60.80;;;;;;4945886;29;20039;-66
2021/04/29 03:23:05;;;;;;;9.73;5.60;;;14.40;60.40;;;;;;4946276;29;20035;-67
2021/04/29 03:25:30;;;;;;;9.02;6.03;;;14.40;60.50;;;;;;4929127;29;20051;-67
2021/04/29 03:27:56;;;;;;;9.68;5.90;;;14.40;60.50;;;;;;4946013;29;20231;-67
2021/04/29 03:30:22;;;;;;;8.05;5.60;;;14.40;60.50;;;;;;4945649;29;20039;-67
2021/04/29 03:32:47;;;;;;;10.32;5.88;;;14.40;60.10;;;;;;4947785;29;20035;-67
2021/04/29 03:35:13;;;;;;;9.70;5.78;;;14.40;60.10;;;;;;4946133;29;20031;-67
2021/04/29 03:37:38;;;;;;;12.68;5.78;;;14.30;60.50;;;;;;4945905;29;20066;-67
2021/04/29 03:40:05;;;;;;;8.05;5.63;;;14.20;60.40;;;;;;4945524;29;20032;-67
2021/04/29 03:42:30;;;;;;;11.80;5.60;;;14.30;60.40;;;;;;4945181;29;20023;-67
2021/04/29 03:44:56;;;;;;;10.45;5.28;;;14.20;60.50;;;;;;4947383;29;20036;-67
2021/04/29 03:47:21;;;;;;;9.65;5.22;;;14.20;60.30;;;;;;4945876;29;20052;-66
2021/04/29 03:49:47;;;;;;;8.25;5.22;;;14.10;60.50;;;;;;4945528;29;20039;-68
2021/04/29 03:52:13;;;;;;;10.10;5.50;;;14.20;60.60;;;;;;4928515;29;20071;-67
2021/04/29 03:54:39;;;;;;;8.23;5.13;;;14.30;60.40;;;;;;4928548;29;20028;-67
2021/04/29 03:57:05;;;;;;;6.75;4.88;;;14.20;60.50;;;;;;4929690;29;20051;-67
2021/04/29 03:59:30;;;;;;;10.68;5.05;;;14.20;60.40;;;;;;4945581;29;20102;-67
2021/04/29 04:01:56;;;;;;;9.32;4.28;;;14.10;60.80;;;;;;4945414;29;20337;-67
2021/04/29 04:04:21;;;;;;;9.02;4.90;;;14.10;60.50;;;;;;4944945;29;20043;-66
2021/04/29 04:06:47;;;;;;;8.88;4.75;;;14.10;60.80;;;;;;4945487;29;20055;-67
2021/04/29 04:09:13;;;;;;;8.93;4.57;;;14.10;61.00;;;;;;4929935;29;20061;-68
2021/04/29 04:11:39;;;;;;;6.63;3.67;;;14.10;60.70;;;;;;4896949;29;20047;-67
2021/04/29 04:14:05;;;;;;;5.68;3.22;;;14.10;60.80;;;;;;4912771;29;20035;-67
2021/04/29 04:16:30;;;;;;;6.72;3.03;;;14.10;60.70;;;;;;4945135;29;20028;-67
2021/04/29 04:18:57;;;;;;;8.27;3.30;;;14.10;61.00;;;;;;4928127;29;20067;-68
2021/04/29 04:21:23;;;;;;;5.85;2.90;;;14.10;61.00;;;;;;4945201;29;20318;-67
2021/04/29 04:23:49;;;;;;;5.15;2.63;;;14.20;60.70;;;;;;4914065;29;20055;-67
2021/04/29 04:26:15;;;;;;;3.15;2.15;;;14.20;60.50;;;;;;4928348;29;20378;-67
2021/04/29 04:28:40;;;;;;;4.22;2.45;;;14.20;60.40;;;;;;4944612;29;20103;-67
2021/04/29 04:31:06;;;;;;;3.17;1.98;;;14.20;60.50;;;;;;4944979;29;20075;-68
2021/04/29 04:33:32;;;;;;;4.93;1.98;;;14.20;60.40;;;;;;4927973;29;20099;-68
2021/04/29 04:35:57;;;;;;;2.53;1.67;;;14.20;60.50;;;;;;4946800;29;20043;-67
2021/04/29 04:38:23;;;;;;;2.92;1.60;;;14.30;60.30;;;;;;4928085;29;20099;-67
2021/04/29 04:40:48;;;;;;;2.15;1.50;;;14.30;60.40;;;;;;4928260;29;20067;-68
2021/04/29 04:43:14;;;;;;;3.28;1.50;;;14.20;60.40;;;;;;4944802;29;20226;-67
2021/04/29 04:45:43;;;;;;;4.55;1.60;;;14.30;60.30;;;;;;4912001;29;20039;-67
2021/04/29 04:48:11;;;;;;;1.50;1.05;;;14.40;60.60;;;;;;4946748;29;20079;-67
2021/04/29 04:50:37;;;;;;;2.63;1.30;;;14.30;60.30;;;;;;4928703;29;20361;-68
2021/04/29 04:53:03;;;;;;;2.10;1.25;;;14.30;60.30;;;;;;4927776;29;20031;-67
2021/04/29 04:55:29;;;;;;;2.30;1.17;;;14.40;60.20;;;;;;4944650;29;20342;-67
2021/04/29 04:57:55;;;;;;;1.70;0.90;;;14.40;60.30;;;;;;4905602;29;20044;-67
2021/04/29 05:00:21;;;;;;;2.25;0.90;;;14.40;60.20;;;;;;4906508;29;20088;-68
2021/04/29 05:02:47;;;;;;;3.58;1.00;;;14.40;60.10;;;;;;4908477;29;20080;-66
2021/04/29 05:05:13;;;;;;;2.22;0.90;;;14.40;60.60;;;;;;4906991;29;20045;-67
2021/04/29 05:07:39;;;;;;;1.75;1.00;;;14.50;60.00;;;;;;4890024;29;20060;-68
2021/04/29 05:10:05;;;;;;;3.65;0.90;;;14.50;60.00;;;;;;4900284;29;20039;-66
2021/04/29 05:12:30;;;;;;;3.10;0.95;;;14.60;60.10;;;;;;4906995;29;20319;-66
2021/04/29 05:14:56;;;;;;;2.13;0.80;;;14.60;60.00;;;;;;4909968;29;20040;-66
2021/04/29 05:17:22;;;;;;;2.15;1.00;;;14.60;60.50;;;;;;4909993;29;20047;-66
2021/04/29 05:19:47;;;;;;;1.58;0.85;;;14.70;60.10;;;;;;4909131;29;20268;-66
2021/04/29 05:22:15;;;;;;;2.03;0.73;;;14.70;60.00;;;;;;4909986;29;20041;-66
2021/04/29 05:24:41;;;;;;;1.17;0.70;;;14.70;59.80;;;;;;4909594;29;20044;-65
2021/04/29 05:27:07;;;;;;;2.33;0.80;;;14.70;59.60;;;;;;4912351;29;20351;-67
2021/04/29 05:29:33;;;;;;;3.25;0.90;;;14.80;59.30;;;;;;4909548;29;20077;-66
2021/04/29 05:31:58;;;;;;;7.82;0.93;;;14.80;59.40;;;;;;4910021;29;20040;-66
2021/04/29 05:34:24;;;;;;;1.15;0.80;;;14.90;59.00;;;;;;4908889;29;20148;-65
2021/04/29 05:36:49;;;;;;;5.47;1.00;;;14.80;59.00;;;;;;4908779;29;20096;-65
2021/04/29 05:39:15;;;;;;;1.35;0.90;;;14.90;58.70;;;;;;4911492;29;20053;-65
2021/04/29 05:41:40;;;;;;;3.20;1.40;;;14.90;58.40;;;;;;4909766;29;20063;-66
2021/04/29 05:44:06;;;;;;;5.20;1.00;;;15.00;58.00;;;;;;4910251;29;20036;-66
2021/04/29 05:46:32;;;;;;;2.03;0.98;;;15.10;57.60;;;;;;4909859;29;20060;-67
2021/04/29 05:48:57;;;;;;;2.20;1.00;;;15.10;57.50;;;;;;4909330;29;20032;-65
2021/04/29 05:51:23;;;;;;;2.38;0.95;;;15.10;56.90;;;;;;4908633;29;20032;-65
2021/04/29 05:53:48;;;;;;;2.45;0.98;;;15.20;56.90;;;;;;4911479;29;20033;-65
2021/04/29 05:56:15;;;;;;;3.33;0.90;;;15.20;56.50;;;;;;4910446;29;20261;-65
2021/04/29 05:58:42;;;;;;;2.88;0.70;;;15.30;56.20;;;;;;4947464;29;20039;-66
2021/04/29 06:01:08;;;;;;;2.53;0.88;;;15.30;55.60;;;;;;4947917;29;20032;-66
2021/04/29 06:03:33;;;;;;;3.85;1.00;;;15.30;55.60;;;;;;4947347;29;20035;-66
2021/04/29 06:05:59;;;;;;;4.90;0.80;;;15.30;55.00;;;;;;4949116;29;20220;-65
2021/04/29 06:08:24;;;;;;;4.30;0.85;;;15.20;55.00;;;;;;4947596;29;20036;-65
2021/04/29 06:10:50;;;;;;;4.82;0.93;;;15.20;54.90;;;;;;4947145;29;20042;-65
2021/04/29 06:13:15;;;;;;;1.88;0.82;;;15.20;54.80;;;;;;4947137;29;20032;-65
2021/04/29 06:15:41;;;;;;;4.75;0.70;;;15.10;54.60;;;;;;4946707;29;20043;-66
2021/04/29 06:18:06;;;;;;;2.97;0.70;;;15.00;54.30;;;;;;4948773;29;20035;-65
2021/04/29 06:20:32;;;;;;;3.35;0.70;;;15.10;54.10;;;;;;4947523;29;20338;-65
2021/04/29 06:22:57;;;;;;;3.63;0.85;;;15.10;54.40;;;;;;4946924;29;20048;-66
2021/04/29 06:25:23;;;;;;;1.48;0.80;;;15.10;54.20;;;;;;4946604;29;20040;-65
2021/04/29 06:27:49;;;;;;;2.00;0.90;;;15.20;54.20;;;;;;4946846;29;20063;-65
2021/04/29 06:30:15;;;;;;;9.75;1.50;;;15.20;53.80;;;;;;4948342;29;20286;-66
2021/04/29 06:32:42;;;;;;;5.93;1.00;;;15.30;53.60;;;;;;4947178;29;20111;-65
2021/04/29 06:35:08;;;;;;;3.80;0.80;;;15.40;53.60;;;;;;4946744;29;20106;-65
2021/04/29 06:37:34;;;;;;;10.18;1.20;;;15.40;53.50;;;;;;4946841;29;20036;-65
2021/04/29 06:39:59;;;;;;;12.38;1.00;;;15.30;52.60;;;;;;4946380;29;20058;-65
2021/04/29 06:42:25;;;;;;;2.80;0.85;;;15.30;52.20;;;;;;4946547;29;20042;-65
2021/04/29 06:44:51;;;;;;;1.65;0.75;;;15.20;52.10;;;;;;4948407;29;20075;-65
2021/04/29 06:47:17;;;;;;;5.60;0.90;;;15.30;52.30;;;;;;4946971;29;20032;-65
2021/04/29 06:49:43;;;;;;;3.65;1.00;;;15.20;52.10;;;;;;4946791;29;20064;-65
2021/04/29 06:52:08;;;;;;;5.20;1.05;;;15.30;52.20;;;;;;4946405;29;20028;-64
2021/04/29 06:54:34;;;;;;;6.38;1.20;;;15.30;52.40;;;;;;4946586;29;20431;-65
2021/04/29 06:56:59;;;;;;;4.32;1.10;;;15.30;52.30;;;;;;4947939;29;20065;-65
2021/04/29 06:59:25;;;;;;;11.68;1.52;;;15.30;52.50;;;;;;4946783;29;20036;-65
2021/04/29 07:01:50;;;;;;;6.75;1.20;;;15.30;52.80;;;;;;4946653;29;20043;-65
2021/04/29 07:04:16;;;;;;;3.60;1.20;;;15.30;52.80;;;;;;4946044;29;20044;-65
2021/04/29 07:06:41;;;;;;;2.92;1.20;;;15.20;52.80;;;;;;4946184;29;20032;-65
2021/04/29 07:09:07;;;;;;;3.13;1.15;;;15.10;53.20;;;;;;4947731;29;20032;-65
2021/04/29 07:11:33;;;;;;;7.63;1.35;;;15.10;53.20;;;;;;4946588;29;20107;-64
2021/04/29 07:13:58;;;;;;;2.90;1.33;;;15.10;53.50;;;;;;4946021;29;20035;-64
2021/04/29 07:16:24;;;;;;;2.42;1.30;;;15.10;53.60;;;;;;4946123;29;20062;-65
2021/04/29 07:18:50;;;;;;;2.17;1.20;;;15.10;53.50;;;;;;4929168;29;20032;-65
2021/04/29 07:21:16;;;;;;;4.05;1.10;;;15.10;53.70;;;;;;4947410;29;20041;-65
2021/04/29 07:23:41;;;;;;;4.32;1.27;;;15.10;53.50;;;;;;4946275;29;20059;-65
2021/04/29 07:26:07;;;;;;;6.10;1.67;;;15.10;53.70;;;;;;4945835;29;20044;-65
2021/04/29 07:28:34;;;;;;;4.88;1.38;;;15.00;53.70;;;;;;4945722;29;20043;-66
2021/04/29 07:31:00;;;;;;;4.25;1.38;;;15.10;53.40;;;;;;4929241;29;20082;-66
2021/04/29 07:33:26;;;;;;;7.28;1.60;;;15.10;53.50;;;;;;4945996;29;20103;-65
2021/04/29 07:35:51;;;;;;;2.65;1.20;;;15.10;53.40;;;;;;4947771;29;20206;-65
2021/04/29 07:38:17;;;;;;;3.58;1.45;;;15.10;53.40;;;;;;4944970;29;20040;-65
2021/04/29 07:40:43;;;;;;;4.13;1.52;;;15.10;53.30;;;;;;4945821;29;20322;-65
2021/04/29 07:43:08;;;;;;;6.00;1.40;;;15.00;53.20;;;;;;4945774;29;20035;-66
2021/04/29 07:45:34;;;;;;;6.80;2.00;;;15.10;53.30;;;;;;4945237;29;20042;-66
2021/04/29 07:48:00;;;;;;;5.32;1.73;;;15.10;53.00;;;;;;4947398;29;20087;-65
2021/04/29 07:50:27;;;;;;;5.60;1.60;;;15.10;53.00;;;;;;4928804;29;20036;-65
2021/04/29 07:52:53;;;;;;;6.05;1.92;;;15.10;52.90;;;;;;4945677;29;20044;-66
2021/04/29 07:55:18;;;;;;;3.38;1.60;;;15.10;52.70;;;;;;4945496;29;20103;-66
2021/04/29 07:57:44;;;;;;;6.22;1.80;;;15.00;52.60;;;;;;4945204;29;20050;-65
2021/04/29 08:00:12;;;;;;;7.50;1.80;;;15.00;52.60;;;;;;4930302;29;20046;-66
2021/04/29 08:02:37;;;;;;;4.68;1.73;;;15.00;52.40;;;;;;4927816;29;20047;-65
2021/04/29 08:05:04;;;;;;;7.57;1.70;;;15.00;52.40;;;;;;4928161;29;20128;-65
2021/04/29 08:07:30;;;;;;;6.07;1.98;;;14.90;52.50;;;;;;4944902;29;20128;-66
2021/04/29 08:09:55;;;;;;;10.30;1.92;;;14.90;52.50;;;;;;4945006;29;20083;-66
2021/04/29 08:12:21;;;;;;;6.00;1.75;;;14.90;52.80;;;;;;4945017;29;20314;-66
2021/04/29 08:14:46;;;;;;;18.15;3.13;;;15.00;52.00;;;;;;4946914;29;20345;-66
2021/04/29 08:17:12;;;;;;;4.50;1.90;;;14.90;52.10;;;;;;4945339;29;20079;-66
2021/04/29 08:19:37;;;;;;;5.63;1.98;;;15.10;52.60;;;;;;4943974;29;20234;-65
2021/04/29 08:22:03;;;;;;;5.32;1.83;;;15.00;51.90;;;;;;4945339;29;20095;-65
2021/04/29 08:24:29;;;;;;;4.13;2.03;;;15.10;52.60;;;;;;4945112;29;20027;-66
2021/04/29 08:26:55;;;;;;;4.55;1.85;;;15.00;53.40;;;;;;4930012;29;20031;-65
2021/04/29 08:29:20;;;;;;;5.47;2.13;;;15.00;52.30;;;;;;4944994;29;20226;-66
2021/04/29 08:31:46;;;;;;;5.15;2.10;;;15.00;52.70;;;;;;4945256;29;20378;-66
2021/04/29 08:34:11;;;;;;;4.20;2.10;;;14.90;51.40;;;;;;4945209;29;20046;-65
2021/04/29 08:36:37;;;;;;;5.95;2.00;;;14.90;51.60;;;;;;4945107;29;20040;-66
2021/04/29 08:39:04;;;;;;;4.47;1.95;;;15.00;50.90;;;;;;4946731;29;20023;-66
2021/04/29 08:41:30;;;;;;;3.45;2.00;;;14.90;51.40;;;;;;4945170;29;20058;-66
2021/04/29 08:43:56;;;;;;;4.35;2.35;;;15.00;51.20;;;;;;4944942;29;20035;-66
2021/04/29 08:46:22;;;;;;;5.47;2.90;;;14.90;51.50;;;;;;4928050;29;20039;-65
2021/04/29 08:48:55;;;;;;;5.95;2.15;;;15.10;51.20;;;;;;4928531;29;20047;-65
2021/04/29 08:51:21;;;;;;;7.25;2.40;;;15.10;50.30;;;;;;4948639;29;20027;-66
2021/04/29 08:53:48;;;;;;;5.07;2.28;;;15.00;50.20;;;;;;4933694;29;20023;-66
2021/04/29 08:56:14;;;;;;;7.55;2.28;;;15.00;50.90;;;;;;4948235;29;20339;-66
2021/04/29 08:58:40;;;;;;;6.22;2.42;;;15.00;51.00;;;;;;4931545;29;20079;-67
2021/04/29 09:01:06;;;;;;;5.28;2.92;;;15.00;50.80;;;;;;4947845;29;20032;-66
2021/04/29 09:03:32;;;;;;;6.60;2.53;;;15.00;50.10;;;;;;4948395;29;20031;-65
2021/04/29 09:05:59;;;;;;;6.65;2.55;;;14.90;49.70;;;;;;4949994;29;20099;-67
2021/04/29 09:08:29;;;;;;;6.43;2.70;;;14.90;50.10;;;;;;4931845;29;20336;-65
2021/04/29 09:11:04;;;;;;;4.90;2.35;;;15.00;49.90;;;;;;4948474;29;20405;-66
2021/04/29 09:13:29;;;;;;;4.85;2.58;;;15.10;50.50;;;;;;4948221;29;20059;-66
2021/04/29 09:16:10;;;;;;;5.93;2.65;;;15.20;50.10;;;;;;4931666;29;20036;-66
2021/04/29 09:18:36;;;;;;;8.05;2.92;;;15.20;49.10;;;;;;4948566;29;20357;-66
2021/04/29 09:21:07;;;;;;;5.47;2.80;;;15.20;49.60;;;;;;4949936;29;20056;-67
2021/04/29 09:23:34;;;;;;;6.47;2.80;;;15.20;49.40;;;;;;4931734;29;20039;-64
2021/04/29 09:26:07;;;;;;;6.45;2.97;;;15.30;49.10;;;;;;4931055;29;20091;-64
2021/04/29 09:28:40;;;;;;;4.90;2.80;;;15.30;48.90;;;;;;4948069;29;20031;-64
2021/04/29 09:31:08;;;;;;;8.00;2.97;;;15.40;49.10;;;;;;4948343;29;20230;-65
2021/04/29 09:33:36;;;;;;;6.45;3.10;;;15.30;48.90;;;;;;4930898;29;20278;-65
2021/04/29 09:36:05;;;;;;;4.28;2.90;;;15.30;49.00;;;;;;4932707;29;20050;-65
2021/04/29 09:38:33;;;;;;;5.60;3.45;;;15.30;48.50;;;;;;4948107;29;20258;-65
2021/04/29 09:40:59;;;;;;;5.50;2.95;;;15.40;48.50;;;;;;4947711;29;20047;-64
2021/04/29 09:43:24;;;;;;;6.50;3.25;;;15.40;48.00;;;;;;4930823;29;20040;-64
2021/04/29 09:46:01;;;;;;;9.85;3.50;;;15.50;48.50;;;;;;4947812;29;20102;-65
2021/04/29 09:48:38;;;;;;;5.47;3.25;;;15.50;47.90;;;;;;4948082;29;20076;-65
2021/04/29 09:51:07;;;;;;;5.00;2.83;;;15.50;47.00;;;;;;4932606;29;20108;-63
2021/04/29 09:53:41;;;;;;;7.85;2.83;;;15.50;47.90;;;;;;4931362;29;20390;-64
2021/04/29 09:56:10;;;;;;;5.65;3.08;;;15.60;47.60;;;;;;4947413;29;20040;-65
2021/04/29 09:58:36;;;;;;;7.60;3.40;;;15.70;47.70;;;;;;4915345;29;20287;-65
2021/04/29 10:01:02;;;;;;;6.70;3.20;;;15.60;47.90;;;;;;4946776;29;20208;-66
2021/04/29 10:03:28;;;;;;;8.57;3.22;;;15.60;47.70;;;;;;4930672;29;20047;-65
2021/04/29 10:05:54;;;;;;;10.18;3.83;;;15.70;47.40;;;;;;4932224;29;20255;-65
2021/04/29 10:08:25;;;;;;;5.90;3.10;;;15.80;47.10;;;;;;4930774;29;20138;-65
2021/04/29 10:10:51;;;;;;;;;;;15.80;46.90;;;;;;4931245;29;20217;-66
2021/04/29 10:13:18;;;;;;;7.10;3.80;;;15.90;46.30;;;;;;4945976;29;19906;-65
2021/04/29 10:15:43;;;;;;;8.10;3.70;;;16.00;45.90;;;;;;4947021;29;20263;-65
2021/04/29 10:18:10;;;;;;;11.07;4.10;;;15.90;45.70;;;;;;4948792;29;20043;-66
2021/04/29 10:20:40;;;;;;;7.70;3.75;;;16.00;45.90;;;;;;4947323;29;20218;-65
2021/04/29 10:23:10;;;;;;;8.90;3.90;;;16.10;46.10;;;;;;4929223;29;20322;-65
2021/04/29 10:25:35;;;;;;;6.25;3.75;;;16.10;46.10;;;;;;4944889;29;20289;-66
2021/04/29 10:28:01;;;;;;;5.28;3.58;;;16.10;46.10;;;;;;4947173;29;20105;-65
2021/04/29 10:30:37;;;;;;;7.70;4.30;;;16.20;45.80;;;;;;4946969;29;20039;-65
2021/04/29 10:33:16;;;;;;;6.38;3.78;;;16.20;45.70;;;;;;4948419;29;20039;-65
2021/04/29 10:35:56;;;;;;;5.68;3.63;;;16.20;45.30;;;;;;4947080;29;20103;-65
2021/04/29 10:38:28;;;;;;;7.75;4.05;;;16.30;45.60;;;;;;4947118;29;20067;-65
2021/04/29 10:40:53;;;;;;;6.25;4.00;;;16.20;45.00;;;;;;4946763;29;20349;-65
2021/04/29 10:43:33;;;;;;;6.32;3.65;;;16.30;45.40;;;;;;4929443;29;20035;-65
2021/04/29 10:46:03;;;;;;;7.43;4.05;;;16.30;45.70;;;;;;4946670;29;20116;-65
2021/04/29 10:48:28;;;;;;;7.35;3.30;;;16.30;45.90;;;;;;4946534;29;20031;-67
2021/04/29 10:51:06;;;;;;;6.70;3.50;;;16.40;45.30;;;;;;4948019;29;20035;-66
2021/04/29 10:53:33;;;;;;;6.53;4.18;;;16.50;45.10;;;;;;4930445;29;20103;-65
2021/04/29 10:56:18;;;;;;;7.63;4.22;;;16.50;44.80;;;;;;4946326;29;20361;-66
2021/04/29 10:58:45;;;;;;;7.78;3.75;;;16.50;43.80;;;;;;4946210;29;20058;-66
2021/04/29 11:01:17;;;;;;;6.68;3.67;;;16.50;44.10;;;;;;4929481;29;20040;-66
2021/04/29 11:03:49;;;;;;;9.02;4.13;;;16.60;44.40;;;;;;4946255;29;20238;-67
2021/04/29 11:06:27;;;;;;;6.15;3.78;;;16.70;43.50;;;;;;4947737;29;20071;-66
2021/04/29 11:08:54;;;;;;;8.60;4.20;;;16.70;43.20;;;;;;4947102;29;20349;-65
2021/04/29 11:11:30;;;;;;;8.50;3.92;;;16.70;43.80;;;;;;4946441;29;20043;-66
2021/04/29 11:14:03;;;;;;;5.25;3.60;;;16.80;44.10;;;;;;4945531;29;20335;-65
2021/04/29 11:16:41;;;;;;;5.35;3.50;;;16.80;44.10;;;;;;4946267;29;20039;-66
2021/04/29 11:19:07;;;;;;;9.23;4.35;;;16.80;44.20;;;;;;4946347;29;20031;-65
2021/04/29 11:21:32;;;;;;;7.90;3.65;;;16.80;43.20;;;;;;4945789;29;20381;-66
2021/04/29 11:24:00;;;;;;;11.00;4.60;;;16.80;43.60;;;;;;4947587;29;20114;-66
2021/04/29 11:26:25;;;;;;;9.73;4.00;;;16.90;44.00;;;;;;4946333;29;20050;-66
2021/04/29 11:28:51;;;;;;;8.15;4.00;;;17.00;43.30;;;;;;4929107;29;20047;-65
2021/04/29 11:31:18;;;;;;;10.07;4.22;;;17.00;43.50;;;;;;4945850;29;20047;-66
2021/04/29 11:33:48;;;;;;;6.72;3.90;;;17.10;43.40;;;;;;4945916;29;20031;-65
2021/04/29 11:36:26;;;;;;;9.30;4.18;;;17.10;43.20;;;;;;4947117;29;20054;-69
2021/04/29 11:38:56;;;;;;;6.10;3.80;;;17.00;42.90;;;;;;4946060;29;20110;-66
2021/04/29 11:41:22;;;;;;;8.27;4.43;;;17.10;43.00;;;;;;4928291;29;20044;-66
2021/04/29 11:44:01;;;;;;;9.98;6.78;;;17.10;42.50;;;;;;4945483;29;20291;-66
2021/04/29 11:46:27;;;;;;;6.88;4.00;;;17.20;42.60;;;;;;4945251;29;20039;-66
2021/04/29 11:48:59;;;;;;;6.68;4.03;;;17.30;42.60;;;;;;4945426;29;20052;-66
2021/04/29 11:51:26;;;;;;;7.05;3.47;;;17.30;43.10;;;;;;4945933;29;20038;-66
2021/04/29 11:53:51;;;;;;;7.57;3.92;;;17.40;42.10;;;;;;4947232;29;20028;-65
2021/04/29 11:56:18;;;;;;;8.10;3.35;;;17.50;41.50;;;;;;4945116;29;20040;-66
2021/04/29 11:58:43;;;;;;;9.57;3.50;;;17.40;41.70;;;;;;4945256;29;20035;-66
2021/04/29 12:01:13;;;;;;;7.13;3.30;;;17.50;41.80;;;;;;4945046;29;20087;-65
2021/04/29 12:03:39;;;;;;;9.65;3.25;;;17.40;40.90;;;;;;4945740;29;20039;-66
2021/04/29 12:06:05;;;;;;;6.28;3.45;;;17.50;40.10;;;;;;4946784;29;20043;-65
2021/04/29 12:08:33;;;;;;;7.05;3.10;;;17.30;40.40;;;;;;4944259;29;20039;-65
2021/04/29 12:11:00;;;;;;;7.40;2.97;;;17.30;41.30;;;;;;4945461;29;20036;-68
2021/04/29 12:13:28;;;;;;;6.47;2.80;;;17.40;40.90;;;;;;4928751;29;20055;-67
2021/04/29 12:16:02;;;;;;;8.48;3.20;;;17.50;40.80;;;;;;4944594;29;20345;-67
2021/04/29 12:18:28;;;;;;;10.00;3.40;;;17.40;40.00;;;;;;4944939;29;20023;-66
2021/04/29 12:20:53;;;;;;;4.30;2.88;;;17.50;40.10;;;;;;4930000;29;20091;-66
2021/04/29 12:23:19;;;;;;;6.93;2.75;;;17.60;40.20;;;;;;4912004;29;20036;-67
2021/04/29 12:26:01;;;;;;;10.40;3.03;;;17.70;39.80;;;;;;4927967;29;20063;-67
2021/04/29 12:28:35;;;;;;;6.97;3.00;;;17.80;39.40;;;;;;4928701;29;20044;-67
2021/04/29 12:31:16;;;;;;;8.02;2.70;;;17.80;39.70;;;;;;4945334;29;20082;-67
2021/04/29 12:33:53;;;;;;;7.22;2.90;;;17.80;39.80;;;;;;4928054;29;20050;-65
2021/04/29 12:36:18;;;;;;;5.22;2.50;;;17.80;39.10;;;;;;4945042;29;20031;-65
2021/04/29 12:38:44;;;;;;;7.07;2.90;;;17.80;39.60;;;;;;4946375;29;20095;-65
2021/04/29 12:41:10;;;;;;;4.88;2.33;;;17.80;39.40;;;;;;4945201;29;20322;-66
2021/04/29 12:43:36;;;;;;;4.88;2.63;;;17.80;39.30;;;;;;4944851;29;20131;-66
2021/04/29 12:46:03;;;;;;;7.03;2.85;;;17.80;39.30;;;;;;4944983;29;20065;-66